sensor_id;sensor_type;location;lat;lon;timestamp;P1;durP1;ratioP1;P2;durP2;ratioP2
6642;SDS011;3357;48.050;7.800;2024-03-06T00:01:09;1.37;;;0.90;;
6642;SDS011;3357;48.050;7.800;2024-03-06T00:03:34;2.00;;;1.20;;
6642;SDS011;3357;48.050;7.800;2024-03-06T00:05:59;1.17;;;1.10;;
6642;SDS011;3357;48.050;7.800;2024-03-06T00:08:25;0.80;;;0.80;;
6642;SDS011;3357;48.050;7.800;2024-03-06T00:10:50;1.57;;;1.20;;
6642;SDS011;3357;48.050;7.800;2024-03-06T00:13:15;2.00;;;1.00;;
6642;SDS011;3357;48.050;7.800;2024-03-06T00:15:40;0.83;;;0.83;;
6642;SDS011;3357;48.050;7.800;2024-03-06T00:18:06;3.03;;;1.37;;
6642;SDS011;3357;48.050;7.800;2024-03-06T00:20:31;1.67;;;1.10;;
6642;SDS011;3357;48.050;7.800;2024-03-06T00:22:56;4.23;;;1.17;;
6642;SDS011;3357;48.050;7.800;2024-03-06T00:25:24;2.60;;;1.53;;
6642;SDS011;3357;48.050;7.800;2024-03-06T00:27:49;2.63;;;1.10;;
6642;SDS011;3357;48.050;7.800;2024-03-06T00:30:14;1.87;;;1.20;;
6642;SDS011;3357;48.050;7.800;2024-03-06T00:32:39;1.40;;;0.90;;
6642;SDS011;3357;48.050;7.800;2024-03-06T00:35:05;1.30;;;1.20;;
6642;SDS011;3357;48.050;7.800;2024-03-06T00:37:31;0.90;;;0.90;;
6642;SDS011;3357;48.050;7.800;2024-03-06T00:39:56;1.73;;;1.30;;
6642;SDS011;3357;48.050;7.800;2024-03-06T00:42:21;1.43;;;0.80;;
6642;SDS011;3357;48.050;7.800;2024-03-06T00:44:46;1.27;;;1.07;;
6642;SDS011;3357;48.050;7.800;2024-03-06T00:47:12;1.50;;;1.20;;
6642;SDS011;3357;48.050;7.800;2024-03-06T00:49:37;4.13;;;1.10;;
6642;SDS011;3357;48.050;7.800;2024-03-06T00:52:03;0.90;;;0.90;;
6642;SDS011;3357;48.050;7.800;2024-03-06T00:54:29;1.43;;;1.03;;
6642;SDS011;3357;48.050;7.800;2024-03-06T00:56:54;2.43;;;1.03;;
6642;SDS011;3357;48.050;7.800;2024-03-06T00:59:20;1.73;;;1.00;;
6642;SDS011;3357;48.050;7.800;2024-03-06T01:01:45;2.10;;;0.77;;
6642;SDS011;3357;48.050;7.800;2024-03-06T01:04:11;1.27;;;0.90;;
6642;SDS011;3357;48.050;7.800;2024-03-06T01:06:37;0.87;;;0.87;;
6642;SDS011;3357;48.050;7.800;2024-03-06T01:09:02;1.10;;;1.00;;
6642;SDS011;3357;48.050;7.800;2024-03-06T01:11:27;0.90;;;0.90;;
6642;SDS011;3357;48.050;7.800;2024-03-06T01:13:53;0.77;;;0.77;;
6642;SDS011;3357;48.050;7.800;2024-03-06T01:16:18;0.90;;;0.90;;
6642;SDS011;3357;48.050;7.800;2024-03-06T01:18:44;1.47;;;1.00;;
6642;SDS011;3357;48.050;7.800;2024-03-06T01:21:09;1.30;;;0.80;;
6642;SDS011;3357;48.050;7.800;2024-03-06T01:23:35;0.73;;;0.60;;
6642;SDS011;3357;48.050;7.800;2024-03-06T01:26:00;1.20;;;1.10;;
6642;SDS011;3357;48.050;7.800;2024-03-06T01:28:25;0.80;;;0.80;;
6642;SDS011;3357;48.050;7.800;2024-03-06T01:30:51;0.90;;;0.90;;
6642;SDS011;3357;48.050;7.800;2024-03-06T01:33:16;2.30;;;0.70;;
6642;SDS011;3357;48.050;7.800;2024-03-06T01:35:41;1.00;;;0.87;;
6642;SDS011;3357;48.050;7.800;2024-03-06T01:38:07;1.20;;;0.77;;
6642;SDS011;3357;48.050;7.800;2024-03-06T01:40:34;2.77;;;2.07;;
6642;SDS011;3357;48.050;7.800;2024-03-06T01:42:59;0.70;;;0.70;;
6642;SDS011;3357;48.050;7.800;2024-03-06T01:45:26;0.80;;;0.80;;
6642;SDS011;3357;48.050;7.800;2024-03-06T01:47:51;5.10;;;1.10;;
6642;SDS011;3357;48.050;7.800;2024-03-06T01:50:16;0.80;;;0.80;;
6642;SDS011;3357;48.050;7.800;2024-03-06T01:52:42;0.80;;;0.80;;
6642;SDS011;3357;48.050;7.800;2024-03-06T01:55:07;0.80;;;0.80;;
6642;SDS011;3357;48.050;7.800;2024-03-06T01:57:34;5.13;;;1.00;;
6642;SDS011;3357;48.050;7.800;2024-03-06T01:59:59;0.80;;;0.77;;
6642;SDS011;3357;48.050;7.800;2024-03-06T02:02:26;3.43;;;1.40;;
6642;SDS011;3357;48.050;7.800;2024-03-06T02:04:52;1.07;;;1.07;;
6642;SDS011;3357;48.050;7.800;2024-03-06T02:07:18;2.50;;;1.33;;
6642;SDS011;3357;48.050;7.800;2024-03-06T02:09:44;4.83;;;1.30;;
6642;SDS011;3357;48.050;7.800;2024-03-06T02:12:09;5.83;;;1.30;;
6642;SDS011;3357;48.050;7.800;2024-03-06T02:14:35;2.10;;;0.80;;
6642;SDS011;3357;48.050;7.800;2024-03-06T02:17:00;1.03;;;1.03;;
6642;SDS011;3357;48.050;7.800;2024-03-06T02:19:37;2.20;;;1.00;;
6642;SDS011;3357;48.050;7.800;2024-03-06T02:22:03;1.00;;;0.90;;
6642;SDS011;3357;48.050;7.800;2024-03-06T02:24:28;1.40;;;1.20;;
6642;SDS011;3357;48.050;7.800;2024-03-06T02:26:53;2.50;;;1.20;;
6642;SDS011;3357;48.050;7.800;2024-03-06T02:29:19;1.20;;;1.10;;
6642;SDS011;3357;48.050;7.800;2024-03-06T02:31:44;1.00;;;1.00;;
6642;SDS011;3357;48.050;7.800;2024-03-06T02:34:09;1.10;;;0.80;;
6642;SDS011;3357;48.050;7.800;2024-03-06T02:36:34;3.33;;;1.10;;
6642;SDS011;3357;48.050;7.800;2024-03-06T02:39:01;2.07;;;1.03;;
6642;SDS011;3357;48.050;7.800;2024-03-06T02:41:26;2.70;;;1.20;;
6642;SDS011;3357;48.050;7.800;2024-03-06T02:43:52;0.90;;;0.90;;
6642;SDS011;3357;48.050;7.800;2024-03-06T02:46:17;2.60;;;1.13;;
6642;SDS011;3357;48.050;7.800;2024-03-06T02:48:42;2.03;;;0.90;;
6642;SDS011;3357;48.050;7.800;2024-03-06T02:51:07;1.73;;;1.10;;
6642;SDS011;3357;48.050;7.800;2024-03-06T02:53:33;2.70;;;1.17;;
6642;SDS011;3357;48.050;7.800;2024-03-06T02:55:58;0.90;;;0.90;;
6642;SDS011;3357;48.050;7.800;2024-03-06T02:58:23;2.80;;;1.73;;
6642;SDS011;3357;48.050;7.800;2024-03-06T03:00:48;3.80;;;0.80;;
6642;SDS011;3357;48.050;7.800;2024-03-06T03:03:14;1.00;;;1.00;;
6642;SDS011;3357;48.050;7.800;2024-03-06T03:05:39;4.83;;;1.10;;
6642;SDS011;3357;48.050;7.800;2024-03-06T03:08:05;1.23;;;1.13;;
6642;SDS011;3357;48.050;7.800;2024-03-06T03:10:31;1.47;;;1.03;;
6642;SDS011;3357;48.050;7.800;2024-03-06T03:12:56;1.67;;;1.20;;
6642;SDS011;3357;48.050;7.800;2024-03-06T03:15:21;2.13;;;1.20;;
6642;SDS011;3357;48.050;7.800;2024-03-06T03:17:46;1.37;;;1.10;;
6642;SDS011;3357;48.050;7.800;2024-03-06T03:20:12;3.50;;;1.13;;
6642;SDS011;3357;48.050;7.800;2024-03-06T03:22:38;1.37;;;1.27;;
6642;SDS011;3357;48.050;7.800;2024-03-06T03:25:08;1.43;;;1.30;;
6642;SDS011;3357;48.050;7.800;2024-03-06T03:27:34;10.63;;;1.30;;
6642;SDS011;3357;48.050;7.800;2024-03-06T03:30:01;2.00;;;1.30;;
6642;SDS011;3357;48.050;7.800;2024-03-06T03:32:26;1.17;;;1.10;;
6642;SDS011;3357;48.050;7.800;2024-03-06T03:34:52;1.40;;;1.30;;
6642;SDS011;3357;48.050;7.800;2024-03-06T03:37:18;1.30;;;1.20;;
6642;SDS011;3357;48.050;7.800;2024-03-06T03:39:43;3.67;;;1.47;;
6642;SDS011;3357;48.050;7.800;2024-03-06T03:42:09;2.13;;;1.50;;
6642;SDS011;3357;48.050;7.800;2024-03-06T03:44:34;3.23;;;1.20;;
6642;SDS011;3357;48.050;7.800;2024-03-06T03:46:59;3.37;;;1.50;;
6642;SDS011;3357;48.050;7.800;2024-03-06T03:49:24;1.70;;;1.60;;
6642;SDS011;3357;48.050;7.800;2024-03-06T03:51:50;1.63;;;1.20;;
6642;SDS011;3357;48.050;7.800;2024-03-06T03:54:15;1.43;;;1.30;;
6642;SDS011;3357;48.050;7.800;2024-03-06T03:56:40;1.50;;;1.40;;
6642;SDS011;3357;48.050;7.800;2024-03-06T03:59:06;1.47;;;1.40;;
6642;SDS011;3357;48.050;7.800;2024-03-06T04:01:31;2.70;;;1.13;;
6642;SDS011;3357;48.050;7.800;2024-03-06T04:03:56;1.33;;;1.20;;
6642;SDS011;3357;48.050;7.800;2024-03-06T04:06:21;2.43;;;1.53;;
6642;SDS011;3357;48.050;7.800;2024-03-06T04:08:47;2.20;;;1.70;;
6642;SDS011;3357;48.050;7.800;2024-03-06T04:11:12;2.20;;;1.33;;
6642;SDS011;3357;48.050;7.800;2024-03-06T04:13:37;6.63;;;1.40;;
6642;SDS011;3357;48.050;7.800;2024-03-06T04:16:03;1.80;;;1.70;;
6642;SDS011;3357;48.050;7.800;2024-03-06T04:18:29;1.47;;;1.37;;
6642;SDS011;3357;48.050;7.800;2024-03-06T04:20:58;1.83;;;1.40;;
6642;SDS011;3357;48.050;7.800;2024-03-06T04:23:24;2.20;;;1.80;;
6642;SDS011;3357;48.050;7.800;2024-03-06T04:25:49;1.90;;;1.13;;
6642;SDS011;3357;48.050;7.800;2024-03-06T04:28:14;1.30;;;1.20;;
6642;SDS011;3357;48.050;7.800;2024-03-06T04:30:40;4.60;;;1.63;;
6642;SDS011;3357;48.050;7.800;2024-03-06T04:33:05;3.43;;;1.63;;
6642;SDS011;3357;48.050;7.800;2024-03-06T04:35:30;1.37;;;1.27;;
6642;SDS011;3357;48.050;7.800;2024-03-06T04:37:55;1.60;;;1.50;;
6642;SDS011;3357;48.050;7.800;2024-03-06T04:40:21;1.60;;;1.50;;
6642;SDS011;3357;48.050;7.800;2024-03-06T04:42:47;1.50;;;1.40;;
6642;SDS011;3357;48.050;7.800;2024-03-06T04:45:14;4.20;;;1.50;;
6642;SDS011;3357;48.050;7.800;2024-03-06T04:47:40;3.67;;;1.97;;
6642;SDS011;3357;48.050;7.800;2024-03-06T04:50:09;1.87;;;1.77;;
6642;SDS011;3357;48.050;7.800;2024-03-06T04:52:36;7.17;;;1.90;;
6642;SDS011;3357;48.050;7.800;2024-03-06T04:55:02;2.10;;;1.90;;
6642;SDS011;3357;48.050;7.800;2024-03-06T04:57:28;5.87;;;1.97;;
6642;SDS011;3357;48.050;7.800;2024-03-06T04:59:53;1.83;;;1.67;;
6642;SDS011;3357;48.050;7.800;2024-03-06T05:02:18;2.30;;;2.10;;
6642;SDS011;3357;48.050;7.800;2024-03-06T05:04:43;2.23;;;2.13;;
6642;SDS011;3357;48.050;7.800;2024-03-06T05:07:09;3.97;;;2.17;;
6642;SDS011;3357;48.050;7.800;2024-03-06T05:09:34;2.50;;;2.40;;
6642;SDS011;3357;48.050;7.800;2024-03-06T05:12:00;3.60;;;2.90;;
6642;SDS011;3357;48.050;7.800;2024-03-06T05:14:26;2.87;;;2.67;;
6642;SDS011;3357;48.050;7.800;2024-03-06T05:16:51;3.53;;;2.50;;
6642;SDS011;3357;48.050;7.800;2024-03-06T05:19:16;3.10;;;2.90;;
6642;SDS011;3357;48.050;7.800;2024-03-06T05:21:41;2.87;;;2.63;;
6642;SDS011;3357;48.050;7.800;2024-03-06T05:24:07;2.63;;;2.43;;
6642;SDS011;3357;48.050;7.800;2024-03-06T05:26:32;2.40;;;2.20;;
6642;SDS011;3357;48.050;7.800;2024-03-06T05:28:57;3.57;;;2.73;;
6642;SDS011;3357;48.050;7.800;2024-03-06T05:31:23;3.63;;;2.33;;
6642;SDS011;3357;48.050;7.800;2024-03-06T05:33:50;2.13;;;2.03;;
6642;SDS011;3357;48.050;7.800;2024-03-06T05:36:15;3.20;;;2.37;;
6642;SDS011;3357;48.050;7.800;2024-03-06T05:38:40;3.93;;;2.37;;
6642;SDS011;3357;48.050;7.800;2024-03-06T05:41:06;3.77;;;2.60;;
6642;SDS011;3357;48.050;7.800;2024-03-06T05:43:31;3.67;;;3.30;;
6642;SDS011;3357;48.050;7.800;2024-03-06T05:45:57;2.87;;;2.67;;
6642;SDS011;3357;48.050;7.800;2024-03-06T05:48:22;2.63;;;2.30;;
6642;SDS011;3357;48.050;7.800;2024-03-06T05:50:49;4.10;;;2.70;;
6642;SDS011;3357;48.050;7.800;2024-03-06T05:53:14;2.73;;;2.53;;
6642;SDS011;3357;48.050;7.800;2024-03-06T05:55:39;2.37;;;2.20;;
6642;SDS011;3357;48.050;7.800;2024-03-06T05:58:04;3.70;;;2.30;;
6642;SDS011;3357;48.050;7.800;2024-03-06T06:00:30;5.60;;;2.30;;
6642;SDS011;3357;48.050;7.800;2024-03-06T06:02:56;3.30;;;2.33;;
6642;SDS011;3357;48.050;7.800;2024-03-06T06:05:21;4.37;;;2.80;;
6642;SDS011;3357;48.050;7.800;2024-03-06T06:07:47;4.03;;;3.20;;
6642;SDS011;3357;48.050;7.800;2024-03-06T06:10:13;2.73;;;2.53;;
6642;SDS011;3357;48.050;7.800;2024-03-06T06:12:38;2.93;;;2.73;;
6642;SDS011;3357;48.050;7.800;2024-03-06T06:15:04;5.13;;;3.33;;
6642;SDS011;3357;48.050;7.800;2024-03-06T06:17:30;8.30;;;2.97;;
6642;SDS011;3357;48.050;7.800;2024-03-06T06:19:55;4.17;;;3.37;;
6642;SDS011;3357;48.050;7.800;2024-03-06T06:22:20;3.70;;;3.20;;
6642;SDS011;3357;48.050;7.800;2024-03-06T06:24:46;4.50;;;3.37;;
6642;SDS011;3357;48.050;7.800;2024-03-06T06:27:13;5.13;;;3.60;;
6642;SDS011;3357;48.050;7.800;2024-03-06T06:29:38;2.87;;;2.67;;
6642;SDS011;3357;48.050;7.800;2024-03-06T06:32:04;3.43;;;2.33;;
6642;SDS011;3357;48.050;7.800;2024-03-06T06:34:29;3.70;;;2.50;;
6642;SDS011;3357;48.050;7.800;2024-03-06T06:36:54;3.33;;;2.23;;
6642;SDS011;3357;48.050;7.800;2024-03-06T06:39:20;3.33;;;2.70;;
6642;SDS011;3357;48.050;7.800;2024-03-06T06:41:45;2.57;;;2.37;;
6642;SDS011;3357;48.050;7.800;2024-03-06T06:44:10;4.10;;;2.70;;
6642;SDS011;3357;48.050;7.800;2024-03-06T06:46:35;3.70;;;2.80;;
6642;SDS011;3357;48.050;7.800;2024-03-06T06:49:01;3.53;;;2.60;;
6642;SDS011;3357;48.050;7.800;2024-03-06T06:51:26;5.87;;;2.90;;
6642;SDS011;3357;48.050;7.800;2024-03-06T06:53:51;2.93;;;2.73;;
6642;SDS011;3357;48.050;7.800;2024-03-06T06:56:16;3.00;;;2.43;;
6642;SDS011;3357;48.050;7.800;2024-03-06T06:58:42;5.13;;;2.80;;
6642;SDS011;3357;48.050;7.800;2024-03-06T07:01:08;2.90;;;2.70;;
6642;SDS011;3357;48.050;7.800;2024-03-06T07:03:34;3.37;;;2.83;;
6642;SDS011;3357;48.050;7.800;2024-03-06T07:05:59;4.30;;;2.43;;
6642;SDS011;3357;48.050;7.800;2024-03-06T07:08:25;5.70;;;3.07;;
6642;SDS011;3357;48.050;7.800;2024-03-06T07:10:50;3.83;;;2.90;;
6642;SDS011;3357;48.050;7.800;2024-03-06T07:13:18;4.73;;;2.90;;
6642;SDS011;3357;48.050;7.800;2024-03-06T07:15:43;3.83;;;3.20;;
6642;SDS011;3357;48.050;7.800;2024-03-06T07:18:10;4.80;;;3.03;;
6642;SDS011;3357;48.050;7.800;2024-03-06T07:20:35;3.37;;;3.07;;
6642;SDS011;3357;48.050;7.800;2024-03-06T07:23:00;2.97;;;2.77;;
6642;SDS011;3357;48.050;7.800;2024-03-06T07:25:26;3.77;;;2.37;;
6642;SDS011;3357;48.050;7.800;2024-03-06T07:27:51;1.90;;;1.80;;
6642;SDS011;3357;48.050;7.800;2024-03-06T07:30:16;2.63;;;2.43;;
6642;SDS011;3357;48.050;7.800;2024-03-06T07:32:41;2.17;;;1.97;;
6642;SDS011;3357;48.050;7.800;2024-03-06T07:35:07;2.07;;;1.97;;
6642;SDS011;3357;48.050;7.800;2024-03-06T07:37:32;2.50;;;2.00;;
6642;SDS011;3357;48.050;7.800;2024-03-06T07:39:58;2.40;;;1.77;;
6642;SDS011;3357;48.050;7.800;2024-03-06T07:42:24;1.60;;;1.50;;
6642;SDS011;3357;48.050;7.800;2024-03-06T07:44:49;1.50;;;1.40;;
6642;SDS011;3357;48.050;7.800;2024-03-06T07:47:15;1.80;;;1.70;;
6642;SDS011;3357;48.050;7.800;2024-03-06T07:49:40;1.80;;;1.70;;
6642;SDS011;3357;48.050;7.800;2024-03-06T07:52:06;1.47;;;1.37;;
6642;SDS011;3357;48.050;7.800;2024-03-06T07:54:31;5.07;;;1.53;;
6642;SDS011;3357;48.050;7.800;2024-03-06T07:56:58;1.53;;;1.10;;
6642;SDS011;3357;48.050;7.800;2024-03-06T07:59:23;1.50;;;1.40;;
6642;SDS011;3357;48.050;7.800;2024-03-06T08:01:48;1.80;;;1.70;;
6642;SDS011;3357;48.050;7.800;2024-03-06T08:04:13;1.80;;;1.70;;
6642;SDS011;3357;48.050;7.800;2024-03-06T08:06:39;1.50;;;1.40;;
6642;SDS011;3357;48.050;7.800;2024-03-06T08:09:04;1.30;;;1.30;;
6642;SDS011;3357;48.050;7.800;2024-03-06T08:11:30;1.43;;;1.33;;
6642;SDS011;3357;48.050;7.800;2024-03-06T08:13:59;1.87;;;1.77;;
6642;SDS011;3357;48.050;7.800;2024-03-06T08:16:24;1.37;;;1.27;;
6642;SDS011;3357;48.050;7.800;2024-03-06T08:18:50;2.33;;;1.33;;
6642;SDS011;3357;48.050;7.800;2024-03-06T08:21:15;1.60;;;1.50;;
6642;SDS011;3357;48.050;7.800;2024-03-06T08:23:40;3.17;;;1.23;;
6642;SDS011;3357;48.050;7.800;2024-03-06T08:26:05;1.33;;;1.23;;
6642;SDS011;3357;48.050;7.800;2024-03-06T08:28:31;2.63;;;1.40;;
6642;SDS011;3357;48.050;7.800;2024-03-06T08:30:56;2.13;;;1.70;;
6642;SDS011;3357;48.050;7.800;2024-03-06T08:33:22;2.90;;;2.30;;
6642;SDS011;3357;48.050;7.800;2024-03-06T08:35:47;3.03;;;1.57;;
6642;SDS011;3357;48.050;7.800;2024-03-06T08:38:13;1.60;;;1.50;;
6642;SDS011;3357;48.050;7.800;2024-03-06T08:40:38;2.33;;;1.20;;
6642;SDS011;3357;48.050;7.800;2024-03-06T08:43:04;1.27;;;1.17;;
6642;SDS011;3357;48.050;7.800;2024-03-06T08:45:29;0.90;;;0.90;;
6642;SDS011;3357;48.050;7.800;2024-03-06T08:47:54;1.20;;;1.10;;
6642;SDS011;3357;48.050;7.800;2024-03-06T08:50:20;2.83;;;1.43;;
6642;SDS011;3357;48.050;7.800;2024-03-06T08:52:45;2.50;;;2.27;;
6642;SDS011;3357;48.050;7.800;2024-03-06T08:55:11;1.60;;;1.50;;
6642;SDS011;3357;48.050;7.800;2024-03-06T08:57:36;1.40;;;1.30;;
6642;SDS011;3357;48.050;7.800;2024-03-06T09:00:02;1.10;;;1.10;;
6642;SDS011;3357;48.050;7.800;2024-03-06T09:02:28;1.53;;;1.43;;
6642;SDS011;3357;48.050;7.800;2024-03-06T09:04:53;1.07;;;0.70;;
6642;SDS011;3357;48.050;7.800;2024-03-06T09:07:19;1.53;;;0.80;;
6642;SDS011;3357;48.050;7.800;2024-03-06T09:09:45;5.73;;;1.10;;
6642;SDS011;3357;48.050;7.800;2024-03-06T09:12:10;0.80;;;0.80;;
6642;SDS011;3357;48.050;7.800;2024-03-06T09:14:36;1.03;;;0.93;;
6642;SDS011;3357;48.050;7.800;2024-03-06T09:17:02;2.70;;;1.00;;
6642;SDS011;3357;48.050;7.800;2024-03-06T09:19:28;0.90;;;0.90;;
6642;SDS011;3357;48.050;7.800;2024-03-06T09:21:54;2.30;;;1.07;;
6642;SDS011;3357;48.050;7.800;2024-03-06T09:24:22;1.47;;;1.20;;
6642;SDS011;3357;48.050;7.800;2024-03-06T09:26:48;1.63;;;1.17;;
6642;SDS011;3357;48.050;7.800;2024-03-06T09:29:14;1.77;;;1.10;;
6642;SDS011;3357;48.050;7.800;2024-03-06T09:31:39;1.30;;;1.20;;
6642;SDS011;3357;48.050;7.800;2024-03-06T09:34:05;1.43;;;1.10;;
6642;SDS011;3357;48.050;7.800;2024-03-06T09:36:30;2.80;;;1.20;;
6642;SDS011;3357;48.050;7.800;2024-03-06T09:38:58;1.20;;;1.10;;
6642;SDS011;3357;48.050;7.800;2024-03-06T09:41:23;1.53;;;1.33;;
6642;SDS011;3357;48.050;7.800;2024-03-06T09:43:48;1.90;;;1.30;;
6642;SDS011;3357;48.050;7.800;2024-03-06T09:46:14;1.23;;;1.13;;
6642;SDS011;3357;48.050;7.800;2024-03-06T09:48:46;0.90;;;0.90;;
6642;SDS011;3357;48.050;7.800;2024-03-06T09:51:12;1.53;;;1.30;;
6642;SDS011;3357;48.050;7.800;2024-03-06T09:53:39;1.10;;;1.00;;
6642;SDS011;3357;48.050;7.800;2024-03-06T09:56:04;1.20;;;1.10;;
6642;SDS011;3357;48.050;7.800;2024-03-06T09:58:30;1.27;;;1.23;;
6642;SDS011;3357;48.050;7.800;2024-03-06T10:00:56;3.97;;;1.10;;
6642;SDS011;3357;48.050;7.800;2024-03-06T10:03:23;3.70;;;1.00;;
6642;SDS011;3357;48.050;7.800;2024-03-06T10:05:48;1.30;;;1.20;;
6642;SDS011;3357;48.050;7.800;2024-03-06T10:08:13;1.00;;;1.00;;
6642;SDS011;3357;48.050;7.800;2024-03-06T10:10:41;2.20;;;1.07;;
6642;SDS011;3357;48.050;7.800;2024-03-06T10:13:07;3.47;;;0.90;;
6642;SDS011;3357;48.050;7.800;2024-03-06T10:15:32;1.23;;;1.00;;
6642;SDS011;3357;48.050;7.800;2024-03-06T10:20:39;1.10;;;1.00;;
6642;SDS011;3357;48.050;7.800;2024-03-06T10:23:06;1.07;;;1.00;;
6642;SDS011;3357;48.050;7.800;2024-03-06T10:25:32;3.33;;;1.00;;
6642;SDS011;3357;48.050;7.800;2024-03-06T10:28:08;1.07;;;0.97;;
6642;SDS011;3357;48.050;7.800;2024-03-06T10:30:34;1.50;;;0.90;;
6642;SDS011;3357;48.050;7.800;2024-03-06T10:33:06;0.83;;;0.80;;
6642;SDS011;3357;48.050;7.800;2024-03-06T10:35:32;1.07;;;1.07;;
6642;SDS011;3357;48.050;7.800;2024-03-06T10:38:00;1.43;;;0.90;;
6642;SDS011;3357;48.050;7.800;2024-03-06T10:40:26;3.00;;;1.17;;
6642;SDS011;3357;48.050;7.800;2024-03-06T10:42:54;0.83;;;0.80;;
6642;SDS011;3357;48.050;7.800;2024-03-06T10:45:20;5.07;;;0.90;;
6642;SDS011;3357;48.050;7.800;2024-03-06T10:47:48;1.60;;;0.90;;
6642;SDS011;3357;48.050;7.800;2024-03-06T10:50:15;1.47;;;0.97;;
6642;SDS011;3357;48.050;7.800;2024-03-06T10:52:41;1.10;;;1.10;;
6642;SDS011;3357;48.050;7.800;2024-03-06T10:55:07;1.03;;;0.90;;
6642;SDS011;3357;48.050;7.800;2024-03-06T10:57:35;1.33;;;0.80;;
6642;SDS011;3357;48.050;7.800;2024-03-06T11:00:01;2.10;;;0.90;;
6642;SDS011;3357;48.050;7.800;2024-03-06T11:02:27;1.87;;;0.77;;
6642;SDS011;3357;48.050;7.800;2024-03-06T11:04:53;2.53;;;0.80;;
6642;SDS011;3357;48.050;7.800;2024-03-06T11:07:19;0.93;;;0.80;;
6642;SDS011;3357;48.050;7.800;2024-03-06T11:09:44;1.27;;;1.10;;
6642;SDS011;3357;48.050;7.800;2024-03-06T11:12:13;0.73;;;0.70;;
6642;SDS011;3357;48.050;7.800;2024-03-06T11:14:40;0.80;;;0.80;;
6642;SDS011;3357;48.050;7.800;2024-03-06T11:17:06;1.07;;;0.97;;
6642;SDS011;3357;48.050;7.800;2024-03-06T11:20:18;1.13;;;1.03;;
6642;SDS011;3357;48.050;7.800;2024-03-06T11:28:11;1.50;;;0.70;;
6642;SDS011;3357;48.050;7.800;2024-03-06T11:33:35;3.10;;;0.90;;
6642;SDS011;3357;48.050;7.800;2024-03-06T11:36:44;7.90;;;0.97;;
6642;SDS011;3357;48.050;7.800;2024-03-06T11:38:55;1.23;;;0.60;;
6642;SDS011;3357;48.050;7.800;2024-03-06T11:41:21;2.60;;;0.80;;
6642;SDS011;3357;48.050;7.800;2024-03-06T11:43:50;1.57;;;0.70;;
6642;SDS011;3357;48.050;7.800;2024-03-06T11:46:18;1.00;;;0.80;;
6642;SDS011;3357;48.050;7.800;2024-03-06T11:48:44;1.00;;;1.00;;
6642;SDS011;3357;48.050;7.800;2024-03-06T11:51:16;2.00;;;0.73;;
6642;SDS011;3357;48.050;7.800;2024-03-06T11:53:42;1.50;;;0.70;;
6642;SDS011;3357;48.050;7.800;2024-03-06T11:56:09;1.40;;;0.90;;
6642;SDS011;3357;48.050;7.800;2024-03-06T11:58:35;3.80;;;0.80;;
6642;SDS011;3357;48.050;7.800;2024-03-06T12:01:00;0.70;;;0.63;;
6642;SDS011;3357;48.050;7.800;2024-03-06T12:03:26;1.37;;;0.80;;
6642;SDS011;3357;48.050;7.800;2024-03-06T12:05:52;1.80;;;0.60;;
6642;SDS011;3357;48.050;7.800;2024-03-06T12:08:17;2.63;;;0.77;;
6642;SDS011;3357;48.050;7.800;2024-03-06T12:10:44;0.90;;;0.80;;
6642;SDS011;3357;48.050;7.800;2024-03-06T12:13:10;3.60;;;0.80;;
6642;SDS011;3357;48.050;7.800;2024-03-06T12:15:36;2.73;;;0.70;;
6642;SDS011;3357;48.050;7.800;2024-03-06T12:18:01;1.57;;;0.80;;
6642;SDS011;3357;48.050;7.800;2024-03-06T12:20:26;5.93;;;0.83;;
6642;SDS011;3357;48.050;7.800;2024-03-06T12:22:52;1.13;;;0.70;;
6642;SDS011;3357;48.050;7.800;2024-03-06T12:25:22;1.63;;;0.80;;
6642;SDS011;3357;48.050;7.800;2024-03-06T12:27:49;1.70;;;1.10;;
6642;SDS011;3357;48.050;7.800;2024-03-06T12:30:18;1.20;;;1.00;;
6642;SDS011;3357;48.050;7.800;2024-03-06T12:32:55;2.53;;;0.60;;
6642;SDS011;3357;48.050;7.800;2024-03-06T12:35:27;3.17;;;0.93;;
6642;SDS011;3357;48.050;7.800;2024-03-06T12:37:53;1.10;;;0.90;;
6642;SDS011;3357;48.050;7.800;2024-03-06T12:40:18;1.20;;;0.73;;
6642;SDS011;3357;48.050;7.800;2024-03-06T12:42:44;1.83;;;0.70;;
6642;SDS011;3357;48.050;7.800;2024-03-06T12:45:11;0.70;;;0.70;;
6642;SDS011;3357;48.050;7.800;2024-03-06T12:47:42;1.00;;;1.00;;
6642;SDS011;3357;48.050;7.800;2024-03-06T12:50:08;1.27;;;0.90;;
6642;SDS011;3357;48.050;7.800;2024-03-06T12:52:34;4.10;;;0.80;;
6642;SDS011;3357;48.050;7.800;2024-03-06T12:55:00;2.20;;;1.07;;
6642;SDS011;3357;48.050;7.800;2024-03-06T12:57:25;2.30;;;1.10;;
6642;SDS011;3357;48.050;7.800;2024-03-06T12:59:52;3.23;;;0.90;;
6642;SDS011;3357;48.050;7.800;2024-03-06T13:02:18;1.50;;;1.40;;
6642;SDS011;3357;48.050;7.800;2024-03-06T13:04:43;3.20;;;1.43;;
6642;SDS011;3357;48.050;7.800;2024-03-06T13:07:08;1.97;;;1.33;;
6642;SDS011;3357;48.050;7.800;2024-03-06T13:09:33;1.90;;;1.50;;
6642;SDS011;3357;48.050;7.800;2024-03-06T13:11:59;3.20;;;2.87;;
6642;SDS011;3357;48.050;7.800;2024-03-06T13:14:24;2.97;;;1.60;;
6642;SDS011;3357;48.050;7.800;2024-03-06T13:16:50;7.30;;;1.10;;
6642;SDS011;3357;48.050;7.800;2024-03-06T13:19:15;4.73;;;0.70;;
6642;SDS011;3357;48.050;7.800;2024-03-06T13:21:40;1.53;;;1.40;;
6642;SDS011;3357;48.050;7.800;2024-03-06T13:24:05;2.00;;;1.17;;
6642;SDS011;3357;48.050;7.800;2024-03-06T13:26:31;0.73;;;0.73;;
6642;SDS011;3357;48.050;7.800;2024-03-06T13:28:56;5.33;;;1.70;;
6642;SDS011;3357;48.050;7.800;2024-03-06T13:31:21;1.43;;;0.60;;
6642;SDS011;3357;48.050;7.800;2024-03-06T13:33:46;3.10;;;0.70;;
6642;SDS011;3357;48.050;7.800;2024-03-06T13:36:14;2.67;;;0.67;;
6642;SDS011;3357;48.050;7.800;2024-03-06T13:38:40;1.33;;;0.60;;
6642;SDS011;3357;48.050;7.800;2024-03-06T13:41:05;3.77;;;1.30;;
6642;SDS011;3357;48.050;7.800;2024-03-06T13:43:30;4.33;;;1.90;;
6642;SDS011;3357;48.050;7.800;2024-03-06T13:45:56;3.27;;;1.07;;
6642;SDS011;3357;48.050;7.800;2024-03-06T13:48:21;2.13;;;1.80;;
6642;SDS011;3357;48.050;7.800;2024-03-06T13:50:47;6.07;;;1.23;;
6642;SDS011;3357;48.050;7.800;2024-03-06T13:53:13;2.30;;;1.00;;
6642;SDS011;3357;48.050;7.800;2024-03-06T13:55:38;3.23;;;1.00;;
6642;SDS011;3357;48.050;7.800;2024-03-06T13:58:05;3.63;;;1.00;;
6642;SDS011;3357;48.050;7.800;2024-03-06T14:00:30;1.83;;;1.07;;
6642;SDS011;3357;48.050;7.800;2024-03-06T14:02:55;1.37;;;1.20;;
6642;SDS011;3357;48.050;7.800;2024-03-06T14:05:21;3.00;;;1.00;;
6642;SDS011;3357;48.050;7.800;2024-03-06T14:07:53;1.23;;;0.93;;
6642;SDS011;3357;48.050;7.800;2024-03-06T14:10:18;1.27;;;1.17;;
6642;SDS011;3357;48.050;7.800;2024-03-06T14:12:45;1.03;;;0.93;;
6642;SDS011;3357;48.050;7.800;2024-03-06T14:15:10;2.30;;;0.97;;
6642;SDS011;3357;48.050;7.800;2024-03-06T14:17:37;2.20;;;0.73;;
6642;SDS011;3357;48.050;7.800;2024-03-06T14:20:04;1.43;;;1.00;;
6642;SDS011;3357;48.050;7.800;2024-03-06T14:22:29;3.67;;;1.10;;
6642;SDS011;3357;48.050;7.800;2024-03-06T14:24:55;1.00;;;0.80;;
6642;SDS011;3357;48.050;7.800;2024-03-06T14:27:20;1.00;;;1.00;;
6642;SDS011;3357;48.050;7.800;2024-03-06T14:29:46;1.43;;;1.10;;
6642;SDS011;3357;48.050;7.800;2024-03-06T14:32:11;2.80;;;1.47;;
6642;SDS011;3357;48.050;7.800;2024-03-06T14:34:36;10.23;;;1.63;;
6642;SDS011;3357;48.050;7.800;2024-03-06T14:37:02;2.23;;;1.23;;
6642;SDS011;3357;48.050;7.800;2024-03-06T14:39:27;2.23;;;0.90;;
6642;SDS011;3357;48.050;7.800;2024-03-06T14:41:52;1.00;;;1.00;;
6642;SDS011;3357;48.050;7.800;2024-03-06T14:44:18;4.20;;;1.10;;
6642;SDS011;3357;48.050;7.800;2024-03-06T14:46:43;1.80;;;0.60;;
6642;SDS011;3357;48.050;7.800;2024-03-06T14:49:08;1.70;;;0.80;;
6642;SDS011;3357;48.050;7.800;2024-03-06T14:51:34;3.27;;;0.70;;
6642;SDS011;3357;48.050;7.800;2024-03-06T14:54:00;2.20;;;0.90;;
6642;SDS011;3357;48.050;7.800;2024-03-06T14:56:25;1.90;;;1.00;;
6642;SDS011;3357;48.050;7.800;2024-03-06T14:58:50;2.47;;;0.90;;
6642;SDS011;3357;48.050;7.800;2024-03-06T15:01:16;1.23;;;0.80;;
6642;SDS011;3357;48.050;7.800;2024-03-06T15:03:42;0.80;;;0.73;;
6642;SDS011;3357;48.050;7.800;2024-03-06T15:06:07;4.73;;;0.80;;
6642;SDS011;3357;48.050;7.800;2024-03-06T15:08:33;1.17;;;0.80;;
6642;SDS011;3357;48.050;7.800;2024-03-06T15:10:59;1.50;;;1.00;;
6642;SDS011;3357;48.050;7.800;2024-03-06T15:13:25;2.80;;;1.00;;
6642;SDS011;3357;48.050;7.800;2024-03-06T15:15:50;1.60;;;0.97;;
6642;SDS011;3357;48.050;7.800;2024-03-06T15:18:16;1.40;;;0.80;;